Search flights

Tromso Airport, Tromso (ENTC)

Airport Weather & NOTAM's

METAR for:ENTC (Tromsø Arpt, TR, NO)
Text:ENTC 180520Z VRB02KT 9999 -RA BKN067 OVC080 14/11 Q1010 NOSIG RMK WIND 2600FT 16015KT
Conditions at:0520 UTC 18 Jun 2024
Temperature: 14.0°C ( 57°F)
Dewpoint: 11.0°C ( 52°F) [RH = 82%]
Pressure (altimeter):29.82 inches Hg (1010.0 mb)
Winds:variable direction winds at 2 MPH (2 knots; 1.0 m/s)
Visibility:6 or more sm (10+ km)
Ceiling:6700 feet AGL
Clouds:broken clouds at 6700 feet AGL, overcast cloud deck at 8000 feet AGL
Weather:-RA (light rain)
TAF for:ENTC (Tromsø Arpt, TR, NO) issued at 2300 UTC 17 Jun 2024
Text:TAF ENTC 172300Z 1800/1824 03008KT 9999 FEW060
Forecast period:0000 UTC 18 June 2024 to 0000 UTC 19 June 2024
Forecast type:FROM: standard forecast or significant change
Winds:from the NNE (30 degrees) at 9 MPH (8 knots; 4.1 m/s)
Visibility:6 or more sm (10+ km)
Ceiling:at least 12,000 feet AGL
Clouds:few clouds at 6000 feet AGL
Text:TEMPO 1815/1820 RA
Forecast period:1500 to 2000 UTC 18 June 2024
Forecast type:TEMPORARY: The following changes expected for less than half the time period
Weather:RA (moderate rain)

Live Departures & Arrivals

There are currently no arrivals or departures for this airport.

Departures History (last 12 months)

Flight No. Dest. Aircraft Date
"NC0208 LTAI Boeing 737... 2024-05-24 06:26:28
"NC0087 GCLP Airbus A32... 2024-05-18 10:03:37
"NC1071 ENGM Boeing 737... 2024-05-10 17:12:04
"NC0216 LFPG Boeing 737... 2024-05-08 13:24:57
"NC0087 GCLP Boeing 737... 2024-05-03 06:23:10
"NC0212 EGLL Airbus A32... 2024-05-01 06:01:09
"NC1071 ENGM Boeing 737... 2024-04-30 08:03:40
"NC0126 ENBO ATR 42-600... 2024-04-24 08:47:02
"NC0126 ENBO Virtualcol... 2024-04-21 09:46:30
"NC0200 LGSA Boeing 737... 2024-04-12 09:32:41
"NC0126 ENBO ATR 42-600... 2024-04-04 08:47:43
"NC1071 ENGM Airbus A32... 2024-03-31 17:29:58
"NC0087 GCLP Airbus A32... 2024-02-17 07:04:26
"NC1071 ENGM Airbus A32... 2024-01-18 07:26:49
"NC1071 ENGM Boeing 737... 2023-12-31 13:21:16
"NC1071 ENGM Airbus A32... 2023-12-25 11:01:24
CR01 ENSB Airbus A32... 2023-12-15 19:04:24
CR01 ENSB Airbus A32... 2023-12-15 10:22:35
"NC1071 ENGM Boeing 737... 2023-12-08 19:24:29
"NC1071 ENGM Airbus A32... 2023-12-07 14:30:12
"NC0220 ENSB Airbus A32... 2023-12-07 21:44:33
"NC0200 LGSA Airbus A32... 2023-11-25 11:32:34
"NC0208 LTAI Boeing 737... 2023-11-09 10:00:36
"NC1071 ENGM Airbus A32... 2023-11-07 19:14:26
"NC1545 EDDF Airbus A32... 2023-10-16 13:55:37
"NC1545 EDDF Airbus A32... 2023-10-14 14:50:44
"NC0126 ENBO ATR 42-600... 2023-07-31 09:35:21

Arrivals History (last 12 months)

Flight No. Origin Aircraft Date
"NC0088 GCLP Boeing 737... 2024-05-23 20:27:17
"NC1544 EDDF Airbus A32... 2024-05-18 09:19:30
"NC0217 LFPG Boeing 737... 2024-05-10 17:06:17
"NC0088 GCLP Boeing 737... 2024-05-08 13:18:00
"NC0088 GCLP Boeing 737... 2024-05-02 19:33:38
"NC0011 EKCH Boeing 737... 2024-04-29 10:07:07
"NC0088 GCLP Airbus A32... 2024-04-27 20:09:55
"NC0011 EKCH Boeing 737... 2024-04-23 18:12:04
"NC1070 ENGM Airbus A32... 2024-04-21 07:34:20
"NC0011 EKCH Boeing 737... 2024-04-12 09:21:12
"NC0125 ENBO ATR 42-600... 2024-04-03 19:13:43
"NC0011 EKCH Airbus A32... 2024-03-31 16:01:07
"NC0088 GCLP Airbus A32... 2024-02-16 21:12:59
"NC1070 ENGM Airbus A32... 2024-01-17 19:36:35
"NC1070 ENGM Boeing 737... 2023-12-15 18:55:01
"NC1070 ENGM Airbus A32... 2023-12-15 10:08:49
"NC1070 ENGM Airbus A32... 2023-12-08 19:55:21
"NC0221 ENSB Boeing 737... 2023-12-08 19:12:57
"NC1070 ENGM Boeing 737... 2023-12-07 18:46:07
"NC1070 ENGM Airbus A32... 2023-12-07 13:45:02
"NC0011 EKCH Airbus A32... 2023-11-25 10:01:10
"NC1070 ENGM Boeing 737... 2023-11-09 09:41:06
"NC0011 EKCH Airbus A32... 2023-11-07 19:02:24
"NC1070 ENGM Airbus A32... 2023-10-16 13:16:09
NT007 ENAN Cessna Sky... 2023-10-14 15:20:44
"NC1070 ENGM Airbus A32... 2023-10-14 14:24:03
"NC0125 ENBO ATR 42-600... 2023-07-30 16:43:49

Runway Information (Airport elevation: 21ft)

Runway 18 Length 6,576ft Width 138ft Elevation 21ft Surface Asphalt Heading 193
Runway 36 Length 6,576ft Width 138ft Elevation 21ft Surface Asphalt Heading 13

Airport Frequencies

Type APP/DEP Frequency 123.750 Mhz
Type ATIS Frequency 126.125 Mhz
Type Tower Frequency 118.300 Mhz

Airport Navaids

Type NDB Ident KBV Frequency 283 Khz
Type NDB Ident KV Frequency 362 Khz
Type NDB Ident TM Frequency 268 Khz
Type VOR-DME Ident TRO Frequency 113800 Khz